createdAt,value
2023-01-19T00:26:42.196Z,-0.62
2023-01-19T00:54:58.312Z,-0.83
2023-01-19T01:23:19.317Z,-0.61
2023-01-19T01:51:36.237Z,-0.69
2023-01-19T02:19:50.937Z,-0.74
2023-01-19T02:48:11.208Z,-0.51
2023-01-19T03:16:31.782Z,-0.47
2023-01-19T03:44:46.835Z,-0.62
2023-01-19T04:13:06.616Z,-0.85
2023-01-19T04:41:24.755Z,-0.93
2023-01-19T05:09:47.513Z,-0.94
2023-01-19T05:38:01.552Z,-1.16
2023-01-19T06:06:24.838Z,-0.85
2023-01-19T06:34:46.180Z,-0.26
2023-01-19T07:03:05.403Z,-0.41
2023-01-19T07:31:17.157Z,-0.38
2023-01-19T07:59:34.830Z,0.1
2023-01-19T08:27:50.281Z,0.27
2023-01-19T08:56:11.932Z,0.67
2023-01-19T09:24:30.697Z,0.83
2023-01-19T09:52:47.888Z,1.07
2023-01-19T10:21:13.212Z,1.84
2023-01-19T10:49:26.595Z,2.8
2023-01-19T11:17:56.812Z,4.2
2023-01-19T11:46:15.624Z,3.09
2023-01-19T12:14:32.205Z,2.58
2023-01-19T12:42:51.359Z,2.59
2023-01-19T13:11:12.380Z,2.78
2023-01-19T13:39:29.678Z,2.6
2023-01-19T14:07:54.840Z,2.8
2023-01-19T14:36:12.666Z,2.79
2023-01-19T15:04:30.571Z,2.66
2023-01-19T15:33:20.431Z,2.67
2023-01-19T16:02:13.986Z,2.42
2023-01-19T16:30:57.931Z,2.24
2023-01-19T17:00:03.165Z,2.32
2023-01-19T17:29:01.176Z,2.18
2023-01-19T17:58:00.536Z,2.11
2023-01-19T18:26:28.280Z,1.99
2023-01-19T18:55:28.302Z,1.94
2023-01-19T19:24:21.623Z,1.92
2023-01-19T19:53:27.162Z,1.92
2023-01-19T20:22:36.300Z,1.94
2023-01-19T20:51:39.455Z,1.86
2023-01-19T21:20:49.273Z,1.63
2023-01-19T21:49:49.859Z,1.72
2023-01-19T22:18:42.661Z,1.49
2023-01-19T22:47:48.841Z,1.49
2023-01-19T23:16:58.027Z,1.54
2023-01-19T23:46:03.705Z,1.59
